sensor_id;sensor_type;location;lat;lon;timestamp;pressure;altitude;pressure_sealevel;temperature;humidity
55466;BME280;41329;41.594;23.810;2023-07-31T00:00:00;94729.81;;;24.77;51.00
55466;BME280;41329;41.594;23.810;2023-07-31T00:02:25;94727.97;;;24.74;51.28
55466;BME280;41329;41.594;23.810;2023-07-31T00:04:51;94724.34;;;24.74;51.16
55466;BME280;41329;41.594;23.810;2023-07-31T00:07:16;94730.81;;;24.74;51.44
55466;BME280;41329;41.594;23.810;2023-07-31T00:09:41;94740.38;;;24.77;51.31
55466;BME280;41329;41.594;23.810;2023-07-31T00:12:07;94750.44;;;24.78;51.32
55466;BME280;41329;41.594;23.810;2023-07-31T00:14:33;94742.13;;;24.74;51.28
55466;BME280;41329;41.594;23.810;2023-07-31T00:16:58;94730.66;;;24.60;51.47
55466;BME280;41329;41.594;23.810;2023-07-31T00:19:23;94745.13;;;24.62;51.42
55466;BME280;41329;41.594;23.810;2023-07-31T00:21:49;94737.91;;;24.52;51.21
55466;BME280;41329;41.594;23.810;2023-07-31T00:24:14;94744.97;;;24.56;51.45
55466;BME280;41329;41.594;23.810;2023-07-31T00:26:39;94740.28;;;24.53;51.73
55466;BME280;41329;41.594;23.810;2023-07-31T00:29:05;94705.09;;;24.36;52.03
55466;BME280;41329;41.594;23.810;2023-07-31T00:31:30;94720.81;;;24.46;52.20
55466;BME280;41329;41.594;23.810;2023-07-31T00:33:56;94728.50;;;24.46;52.35
55466;BME280;41329;41.594;23.810;2023-07-31T00:36:21;94715.63;;;24.45;52.45
55466;BME280;41329;41.594;23.810;2023-07-31T00:38:46;94693.78;;;24.36;52.35
55466;BME280;41329;41.594;23.810;2023-07-31T00:41:12;94708.69;;;24.46;52.51
55466;BME280;41329;41.594;23.810;2023-07-31T00:43:37;94704.31;;;24.45;52.59
55466;BME280;41329;41.594;23.810;2023-07-31T00:46:02;94707.44;;;24.47;53.08
55466;BME280;41329;41.594;23.810;2023-07-31T00:48:28;94700.53;;;24.48;52.83
55466;BME280;41329;41.594;23.810;2023-07-31T00:50:53;94712.50;;;24.34;52.42
55466;BME280;41329;41.594;23.810;2023-07-31T00:53:19;94700.28;;;24.28;52.79
55466;BME280;41329;41.594;23.810;2023-07-31T00:55:45;94703.16;;;24.10;52.96
55466;BME280;41329;41.594;23.810;2023-07-31T00:58:10;94699.56;;;23.91;53.77
55466;BME280;41329;41.594;23.810;2023-07-31T01:00:36;94725.91;;;23.97;54.51
55466;BME280;41329;41.594;23.810;2023-07-31T01:03:01;94732.50;;;23.58;55.63
55466;BME280;41329;41.594;23.810;2023-07-31T01:06:00;94733.69;;;23.21;56.96
55466;BME280;41329;41.594;23.810;2023-07-31T01:08:42;94707.56;;;22.81;58.29
55466;BME280;41329;41.594;23.810;2023-07-31T01:11:22;94736.44;;;22.94;58.20
55466;BME280;41329;41.594;23.810;2023-07-31T01:13:51;94725.91;;;22.94;58.11
55466;BME280;41329;41.594;23.810;2023-07-31T01:16:17;94720.41;;;22.91;58.27
55466;BME280;41329;41.594;23.810;2023-07-31T01:18:42;94725.44;;;22.96;58.73
55466;BME280;41329;41.594;23.810;2023-07-31T01:27:04;94738.47;;;23.02;58.92
55466;BME280;41329;41.594;23.810;2023-07-31T01:32:14;94720.91;;;22.98;58.75
55466;BME280;41329;41.594;23.810;2023-07-31T01:34:41;94748.69;;;23.09;58.88
55466;BME280;41329;41.594;23.810;2023-07-31T01:37:07;94735.66;;;23.12;59.37
55466;BME280;41329;41.594;23.810;2023-07-31T01:39:32;94735.19;;;23.04;60.04
55466;BME280;41329;41.594;23.810;2023-07-31T01:41:57;94731.25;;;22.92;60.54
55466;BME280;41329;41.594;23.810;2023-07-31T01:44:23;94736.28;;;22.98;60.97
55466;BME280;41329;41.594;23.810;2023-07-31T01:46:48;94750.56;;;23.03;61.29
55466;BME280;41329;41.594;23.810;2023-07-31T01:49:14;94739.88;;;22.98;61.00
55466;BME280;41329;41.594;23.810;2023-07-31T01:51:39;94738.44;;;22.93;61.14
55466;BME280;41329;41.594;23.810;2023-07-31T01:54:04;94740.00;;;22.94;61.66
55466;BME280;41329;41.594;23.810;2023-07-31T01:56:30;94747.09;;;22.99;61.42
55466;BME280;41329;41.594;23.810;2023-07-31T01:58:56;94743.16;;;22.88;61.76
55466;BME280;41329;41.594;23.810;2023-07-31T02:01:21;94745.19;;;22.96;61.52
55466;BME280;41329;41.594;23.810;2023-07-31T02:03:46;94764.19;;;23.05;61.60
55466;BME280;41329;41.594;23.810;2023-07-31T02:06:12;94760.59;;;23.13;61.66
55466;BME280;41329;41.594;23.810;2023-07-31T02:08:37;94754.72;;;23.20;62.02
55466;BME280;41329;41.594;23.810;2023-07-31T02:11:03;94737.91;;;23.17;61.95
55466;BME280;41329;41.594;23.810;2023-07-31T02:13:28;94729.44;;;23.17;62.61
55466;BME280;41329;41.594;23.810;2023-07-31T02:15:54;94744.38;;;23.35;62.78
55466;BME280;41329;41.594;23.810;2023-07-31T02:18:19;94735.59;;;23.33;62.74
55466;BME280;41329;41.594;23.810;2023-07-31T02:20:52;94735.44;;;23.37;63.15
55466;BME280;41329;41.594;23.810;2023-07-31T02:23:20;94726.81;;;23.31;62.73
55466;BME280;41329;41.594;23.810;2023-07-31T02:25:46;94719.75;;;23.27;63.28
55466;BME280;41329;41.594;23.810;2023-07-31T02:28:11;94723.97;;;23.22;62.76
55466;BME280;41329;41.594;23.810;2023-07-31T02:30:38;94728.69;;;23.34;62.37
55466;BME280;41329;41.594;23.810;2023-07-31T02:33:04;94722.91;;;23.38;62.59
55466;BME280;41329;41.594;23.810;2023-07-31T02:35:29;94694.63;;;23.20;63.01
55466;BME280;41329;41.594;23.810;2023-07-31T02:37:55;94692.25;;;23.18;62.79
55466;BME280;41329;41.594;23.810;2023-07-31T02:40:21;94697.63;;;23.25;63.45
55466;BME280;41329;41.594;23.810;2023-07-31T02:42:46;94713.78;;;23.25;63.49
55466;BME280;41329;41.594;23.810;2023-07-31T02:45:11;94706.34;;;23.00;64.42
55466;BME280;41329;41.594;23.810;2023-07-31T02:47:37;94718.69;;;22.93;64.75
55466;BME280;41329;41.594;23.810;2023-07-31T02:50:03;94710.41;;;22.90;64.91
55466;BME280;41329;41.594;23.810;2023-07-31T02:52:28;94717.91;;;22.93;64.71
55466;BME280;41329;41.594;23.810;2023-07-31T02:54:54;94722.25;;;22.85;64.98
55466;BME280;41329;41.594;23.810;2023-07-31T02:57:19;94716.63;;;22.85;64.78
55466;BME280;41329;41.594;23.810;2023-07-31T02:59:44;94727.00;;;22.88;64.79
55466;BME280;41329;41.594;23.810;2023-07-31T03:02:10;94725.88;;;22.85;65.11
55466;BME280;41329;41.594;23.810;2023-07-31T03:04:36;94725.56;;;22.83;65.17
55466;BME280;41329;41.594;23.810;2023-07-31T03:07:02;94716.31;;;22.83;64.79
55466;BME280;41329;41.594;23.810;2023-07-31T03:09:27;94732.31;;;22.86;65.10
55466;BME280;41329;41.594;23.810;2023-07-31T03:11:52;94737.00;;;22.89;65.35
55466;BME280;41329;41.594;23.810;2023-07-31T03:14:18;94727.78;;;22.88;64.94
55466;BME280;41329;41.594;23.810;2023-07-31T03:16:43;94720.56;;;22.88;64.74
55466;BME280;41329;41.594;23.810;2023-07-31T03:19:09;94734.25;;;22.98;65.06
55466;BME280;41329;41.594;23.810;2023-07-31T03:21:34;94733.63;;;23.03;65.04
55466;BME280;41329;41.594;23.810;2023-07-31T03:23:59;94732.38;;;23.04;64.88
55466;BME280;41329;41.594;23.810;2023-07-31T03:26:25;94714.44;;;22.89;64.88
55466;BME280;41329;41.594;23.810;2023-07-31T03:28:50;94717.63;;;23.00;64.72
55466;BME280;41329;41.594;23.810;2023-07-31T03:31:15;94720.16;;;23.07;64.42
55466;BME280;41329;41.594;23.810;2023-07-31T03:33:41;94722.97;;;23.07;64.04
55466;BME280;41329;41.594;23.810;2023-07-31T03:36:06;94715.13;;;23.02;64.12
55466;BME280;41329;41.594;23.810;2023-07-31T03:38:33;94692.38;;;22.88;64.77
55466;BME280;41329;41.594;23.810;2023-07-31T03:40:59;94724.25;;;23.06;65.39
55466;BME280;41329;41.594;23.810;2023-07-31T03:43:24;94726.56;;;23.08;65.82
55466;BME280;41329;41.594;23.810;2023-07-31T03:45:50;94733.31;;;23.10;66.25
55466;BME280;41329;41.594;23.810;2023-07-31T03:48:15;94747.59;;;23.16;65.99
55466;BME280;41329;41.594;23.810;2023-07-31T03:50:41;94749.06;;;23.20;65.75
55466;BME280;41329;41.594;23.810;2023-07-31T03:53:07;94745.78;;;23.22;65.63
55466;BME280;41329;41.594;23.810;2023-07-31T03:55:32;94753.00;;;23.23;65.59
55466;BME280;41329;41.594;23.810;2023-07-31T03:57:58;94742.75;;;23.16;65.17
55466;BME280;41329;41.594;23.810;2023-07-31T04:00:23;94742.28;;;23.18;64.92
55466;BME280;41329;41.594;23.810;2023-07-31T04:02:48;94765.06;;;23.23;64.56
55466;BME280;41329;41.594;23.810;2023-07-31T04:05:14;94752.94;;;23.14;64.99
55466;BME280;41329;41.594;23.810;2023-07-31T04:07:39;94765.06;;;23.23;65.26
55466;BME280;41329;41.594;23.810;2023-07-31T04:10:05;94759.72;;;23.25;65.45
55466;BME280;41329;41.594;23.810;2023-07-31T04:12:30;94761.75;;;23.25;65.29
55466;BME280;41329;41.594;23.810;2023-07-31T04:14:55;94733.31;;;23.10;64.78
55466;BME280;41329;41.594;23.810;2023-07-31T04:17:21;94750.28;;;23.19;64.59
55466;BME280;41329;41.594;23.810;2023-07-31T04:19:46;94767.91;;;23.23;65.03
55466;BME280;41329;41.594;23.810;2023-07-31T04:22:11;94750.88;;;23.14;65.03
55466;BME280;41329;41.594;23.810;2023-07-31T04:24:37;94764.13;;;23.26;64.93
55466;BME280;41329;41.594;23.810;2023-07-31T04:27:02;94774.19;;;23.27;64.94
55466;BME280;41329;41.594;23.810;2023-07-31T04:29:28;94764.75;;;23.21;65.12
55466;BME280;41329;41.594;23.810;2023-07-31T04:31:53;94755.59;;;23.17;65.18
55466;BME280;41329;41.594;23.810;2023-07-31T04:34:19;94781.69;;;23.30;64.92
55466;BME280;41329;41.594;23.810;2023-07-31T04:36:44;94775.91;;;23.34;64.93
55466;BME280;41329;41.594;23.810;2023-07-31T04:39:09;94787.06;;;23.37;65.36
55466;BME280;41329;41.594;23.810;2023-07-31T04:41:35;94768.19;;;23.25;64.96
55466;BME280;41329;41.594;23.810;2023-07-31T04:44:01;94785.63;;;23.33;64.91
55466;BME280;41329;41.594;23.810;2023-07-31T04:46:26;94788.31;;;23.36;64.96
55466;BME280;41329;41.594;23.810;2023-07-31T04:48:52;94785.34;;;23.40;64.89
55466;BME280;41329;41.594;23.810;2023-07-31T04:51:17;94790.81;;;23.43;65.16
55466;BME280;41329;41.594;23.810;2023-07-31T04:53:43;94790.22;;;23.48;65.25
55466;BME280;41329;41.594;23.810;2023-07-31T04:56:08;94787.53;;;23.54;65.12
55466;BME280;41329;41.594;23.810;2023-07-31T04:58:34;94764.66;;;23.52;64.82
55466;BME280;41329;41.594;23.810;2023-07-31T05:00:59;94773.13;;;23.61;63.38
55466;BME280;41329;41.594;23.810;2023-07-31T05:03:24;94782.53;;;23.67;63.68
55466;BME280;41329;41.594;23.810;2023-07-31T05:05:50;94770.13;;;23.64;64.27
55466;BME280;41329;41.594;23.810;2023-07-31T05:08:16;94775.03;;;23.73;63.92
55466;BME280;41329;41.594;23.810;2023-07-31T05:10:43;94771.88;;;23.71;63.72
55466;BME280;41329;41.594;23.810;2023-07-31T05:13:08;94779.59;;;23.79;63.42
55466;BME280;41329;41.594;23.810;2023-07-31T05:15:33;94783.50;;;23.82;62.93
55466;BME280;41329;41.594;23.810;2023-07-31T05:17:59;94781.78;;;23.84;63.20
55466;BME280;41329;41.594;23.810;2023-07-31T05:20:24;94778.78;;;23.79;62.65
55466;BME280;41329;41.594;23.810;2023-07-31T05:22:50;94781.31;;;23.86;61.92
55466;BME280;41329;41.594;23.810;2023-07-31T05:25:16;94795.28;;;23.89;61.05
55466;BME280;41329;41.594;23.810;2023-07-31T05:27:41;94792.44;;;23.89;61.67
55466;BME280;41329;41.594;23.810;2023-07-31T05:30:07;94797.81;;;23.96;61.82
55466;BME280;41329;41.594;23.810;2023-07-31T05:32:33;94794.19;;;23.87;61.69
55466;BME280;41329;41.594;23.810;2023-07-31T05:34:58;94781.59;;;23.61;62.29
55466;BME280;41329;41.594;23.810;2023-07-31T05:37:24;94798.84;;;23.63;62.29
55466;BME280;41329;41.594;23.810;2023-07-31T05:39:49;94792.72;;;23.46;62.85
55466;BME280;41329;41.594;23.810;2023-07-31T05:42:14;94778.31;;;23.05;62.97
55466;BME280;41329;41.594;23.810;2023-07-31T05:44:40;94782.00;;;23.23;63.70
55466;BME280;41329;41.594;23.810;2023-07-31T05:47:05;94800.88;;;23.44;62.87
55466;BME280;41329;41.594;23.810;2023-07-31T05:49:31;94787.41;;;23.57;62.57
55466;BME280;41329;41.594;23.810;2023-07-31T05:51:56;94796.34;;;23.56;62.98
55466;BME280;41329;41.594;23.810;2023-07-31T05:54:22;94781.31;;;23.59;62.77
55466;BME280;41329;41.594;23.810;2023-07-31T05:56:47;94799.81;;;23.69;62.45
55466;BME280;41329;41.594;23.810;2023-07-31T05:59:13;94790.41;;;23.72;61.73
55466;BME280;41329;41.594;23.810;2023-07-31T06:01:39;94792.16;;;23.69;62.02
55466;BME280;41329;41.594;23.810;2023-07-31T06:04:04;94804.38;;;23.75;63.82
55466;BME280;41329;41.594;23.810;2023-07-31T06:06:30;94801.56;;;23.84;62.93
55466;BME280;41329;41.594;23.810;2023-07-31T06:08:55;94786.97;;;23.86;62.23
55466;BME280;41329;41.594;23.810;2023-07-31T06:11:21;94790.88;;;23.79;61.54
55466;BME280;41329;41.594;23.810;2023-07-31T06:13:46;94788.72;;;23.92;62.22
55466;BME280;41329;41.594;23.810;2023-07-31T06:16:13;94782.28;;;23.92;61.49
55466;BME280;41329;41.594;23.810;2023-07-31T06:18:39;94795.00;;;24.14;62.92
55466;BME280;41329;41.594;23.810;2023-07-31T06:21:04;94795.94;;;24.20;63.49
55466;BME280;41329;41.594;23.810;2023-07-31T06:23:29;94791.38;;;24.23;62.99
55466;BME280;41329;41.594;23.810;2023-07-31T06:25:55;94796.84;;;24.44;62.18
55466;BME280;41329;41.594;23.810;2023-07-31T06:28:20;94793.03;;;24.56;61.93
55466;BME280;41329;41.594;23.810;2023-07-31T06:30:45;94787.91;;;24.64;60.57
55466;BME280;41329;41.594;23.810;2023-07-31T06:33:11;94778.44;;;24.58;59.87
55466;BME280;41329;41.594;23.810;2023-07-31T06:35:36;94791.78;;;24.75;59.08
55466;BME280;41329;41.594;23.810;2023-07-31T06:38:02;94779.84;;;24.71;57.79
55466;BME280;41329;41.594;23.810;2023-07-31T06:40:28;94767.59;;;24.74;57.00
55466;BME280;41329;41.594;23.810;2023-07-31T06:42:53;94781.97;;;24.94;56.70
55466;BME280;41329;41.594;23.810;2023-07-31T06:45:19;94775.34;;;24.97;54.73
55466;BME280;41329;41.594;23.810;2023-07-31T06:47:44;94782.09;;;25.00;56.08
55466;BME280;41329;41.594;23.810;2023-07-31T06:50:10;94779.59;;;25.02;56.47
55466;BME280;41329;41.594;23.810;2023-07-31T06:52:35;94774.53;;;25.06;57.15
55466;BME280;41329;41.594;23.810;2023-07-31T06:55:16;94758.94;;;25.10;57.00
55466;BME280;41329;41.594;23.810;2023-07-31T06:57:43;94765.13;;;25.32;56.11
55466;BME280;41329;41.594;23.810;2023-07-31T07:00:09;94776.06;;;25.16;54.51
55466;BME280;41329;41.594;23.810;2023-07-31T07:02:35;94777.94;;;25.10;55.10
55466;BME280;41329;41.594;23.810;2023-07-31T07:05:00;94773.97;;;25.25;55.91
55466;BME280;41329;41.594;23.810;2023-07-31T07:07:26;94770.16;;;25.37;56.15
55466;BME280;41329;41.594;23.810;2023-07-31T07:09:51;94757.91;;;25.31;54.57
55466;BME280;41329;41.594;23.810;2023-07-31T07:12:17;94766.53;;;25.37;52.92
55466;BME280;41329;41.594;23.810;2023-07-31T07:14:42;94753.19;;;25.28;53.65
55466;BME280;41329;41.594;23.810;2023-07-31T07:17:07;94765.28;;;25.61;54.23
55466;BME280;41329;41.594;23.810;2023-07-31T07:19:33;94775.34;;;25.86;51.97
55466;BME280;41329;41.594;23.810;2023-07-31T07:21:58;94767.94;;;25.88;50.22
55466;BME280;41329;41.594;23.810;2023-07-31T07:24:26;94779.03;;;26.01;49.81
55466;BME280;41329;41.594;23.810;2023-07-31T07:26:52;94777.97;;;26.13;49.89
55466;BME280;41329;41.594;23.810;2023-07-31T07:29:17;94774.59;;;26.23;49.05
55466;BME280;41329;41.594;23.810;2023-07-31T07:31:43;94775.19;;;26.27;48.48
55466;BME280;41329;41.594;23.810;2023-07-31T07:34:08;94776.00;;;26.42;49.27
55466;BME280;41329;41.594;23.810;2023-07-31T07:36:33;94760.22;;;26.41;49.05
55466;BME280;41329;41.594;23.810;2023-07-31T07:38:59;94771.44;;;26.59;47.04
55466;BME280;41329;41.594;23.810;2023-07-31T07:41:24;94741.78;;;26.60;46.10
55466;BME280;41329;41.594;23.810;2023-07-31T07:43:49;94759.66;;;26.66;46.65
55466;BME280;41329;41.594;23.810;2023-07-31T07:46:16;94758.13;;;26.65;44.60
55466;BME280;41329;41.594;23.810;2023-07-31T07:48:41;94750.88;;;26.64;44.45
55466;BME280;41329;41.594;23.810;2023-07-31T07:51:07;94752.53;;;26.71;44.19
55466;BME280;41329;41.594;23.810;2023-07-31T07:53:32;94754.41;;;26.74;43.60
55466;BME280;41329;41.594;23.810;2023-07-31T07:55:58;94755.75;;;26.78;43.91
55466;BME280;41329;41.594;23.810;2023-07-31T07:58:23;94750.56;;;26.91;44.19
55466;BME280;41329;41.594;23.810;2023-07-31T08:00:50;94751.47;;;27.17;43.60
55466;BME280;41329;41.594;23.810;2023-07-31T08:03:16;94744.03;;;27.34;42.91
55466;BME280;41329;41.594;23.810;2023-07-31T08:05:42;94754.00;;;27.44;42.19
55466;BME280;41329;41.594;23.810;2023-07-31T08:08:07;94745.22;;;27.62;41.69
55466;BME280;41329;41.594;23.810;2023-07-31T08:10:33;94748.00;;;27.77;40.31
55466;BME280;41329;41.594;23.810;2023-07-31T08:12:58;94743.75;;;27.87;41.07
55466;BME280;41329;41.594;23.810;2023-07-31T08:15:24;94739.59;;;28.08;40.63
55466;BME280;41329;41.594;23.810;2023-07-31T08:17:49;94741.03;;;28.18;40.42
55466;BME280;41329;41.594;23.810;2023-07-31T08:20:15;94730.06;;;28.31;39.30
55466;BME280;41329;41.594;23.810;2023-07-31T08:22:40;94739.63;;;28.54;39.37
55466;BME280;41329;41.594;23.810;2023-07-31T08:25:06;94736.00;;;28.53;38.08
55466;BME280;41329;41.594;23.810;2023-07-31T08:27:32;94707.72;;;28.44;38.73
55466;BME280;41329;41.594;23.810;2023-07-31T08:29:57;94730.47;;;28.70;39.23
55466;BME280;41329;41.594;23.810;2023-07-31T08:32:23;94737.06;;;29.12;39.74
55466;BME280;41329;41.594;23.810;2023-07-31T08:34:48;94729.94;;;29.28;38.81
55466;BME280;41329;41.594;23.810;2023-07-31T08:37:14;94725.38;;;29.41;37.85
55466;BME280;41329;41.594;23.810;2023-07-31T08:39:39;94698.78;;;29.19;38.13
55466;BME280;41329;41.594;23.810;2023-07-31T08:42:08;94720.69;;;29.38;38.78
55466;BME280;41329;41.594;23.810;2023-07-31T08:44:34;94730.59;;;29.48;38.45
55466;BME280;41329;41.594;23.810;2023-07-31T08:47:00;94722.91;;;29.60;38.08
55466;BME280;41329;41.594;23.810;2023-07-31T08:49:26;94720.66;;;29.69;37.53
55466;BME280;41329;41.594;23.810;2023-07-31T08:51:52;94723.50;;;29.69;37.97
55466;BME280;41329;41.594;23.810;2023-07-31T08:54:19;94715.72;;;29.70;37.55
55466;BME280;41329;41.594;23.810;2023-07-31T08:56:46;94710.81;;;29.76;37.40
55466;BME280;41329;41.594;23.810;2023-07-31T08:59:12;94712.22;;;29.97;37.68
55466;BME280;41329;41.594;23.810;2023-07-31T09:01:43;94724.28;;;30.23;36.84
55466;BME280;41329;41.594;23.810;2023-07-31T09:04:09;94714.44;;;30.35;35.70
55466;BME280;41329;41.594;23.810;2023-07-31T09:06:36;94711.84;;;30.31;34.69
55466;BME280;41329;41.594;23.810;2023-07-31T09:09:02;94711.84;;;30.31;35.22
55466;BME280;41329;41.594;23.810;2023-07-31T09:11:28;94713.09;;;30.19;34.74
55466;BME280;41329;41.594;23.810;2023-07-31T09:13:57;94711.84;;;30.37;35.85
55466;BME280;41329;41.594;23.810;2023-07-31T09:16:29;94705.72;;;30.77;36.52
55466;BME280;41329;41.594;23.810;2023-07-31T09:18:58;94708.59;;;31.15;34.96
55466;BME280;41329;41.594;23.810;2023-07-31T09:21:24;94690.66;;;31.37;35.22
55466;BME280;41329;41.594;23.810;2023-07-31T09:23:50;94694.53;;;31.50;33.50
55466;BME280;41329;41.594;23.810;2023-07-31T09:26:33;94705.19;;;31.50;32.17
55466;BME280;41329;41.594;23.810;2023-07-31T09:28:59;94702.09;;;31.48;32.97
55466;BME280;41329;41.594;23.810;2023-07-31T09:31:39;94697.38;;;31.61;33.83
55466;BME280;41329;41.594;23.810;2023-07-31T09:34:05;94693.44;;;31.70;31.99
55466;BME280;41329;41.594;23.810;2023-07-31T09:36:31;94685.16;;;31.61;32.49
55466;BME280;41329;41.594;23.810;2023-07-31T09:39:02;94686.97;;;31.69;31.89
55466;BME280;41329;41.594;23.810;2023-07-31T09:41:27;94697.03;;;31.87;32.01
55466;BME280;41329;41.594;23.810;2023-07-31T09:43:54;94704.81;;;31.97;32.45
55466;BME280;41329;41.594;23.810;2023-07-31T09:46:20;94698.59;;;31.88;33.35
55466;BME280;41329;41.594;23.810;2023-07-31T09:48:46;94689.47;;;31.95;32.10
55466;BME280;41329;41.594;23.810;2023-07-31T09:51:11;94685.59;;;31.92;31.86
55466;BME280;41329;41.594;23.810;2023-07-31T09:53:37;94696.44;;;32.05;32.76
55466;BME280;41329;41.594;23.810;2023-07-31T09:56:03;94681.41;;;31.99;31.51
55466;BME280;41329;41.594;23.810;2023-07-31T09:58:34;94691.28;;;31.98;32.07
55466;BME280;41329;41.594;23.810;2023-07-31T10:01:01;94689.19;;;31.98;32.90
55466;BME280;41329;41.594;23.810;2023-07-31T10:03:27;94667.56;;;32.14;32.45
55466;BME280;41329;41.594;23.810;2023-07-31T10:05:55;94656.38;;;32.05;30.77
55466;BME280;41329;41.594;23.810;2023-07-31T10:08:27;94663.88;;;32.19;31.22
55466;BME280;41329;41.594;23.810;2023-07-31T10:10:58;94656.81;;;32.25;32.30
55466;BME280;41329;41.594;23.810;2023-07-31T10:13:24;94670.03;;;32.34;30.56
55466;BME280;41329;41.594;23.810;2023-07-31T10:15:50;94657.31;;;32.35;30.64
55466;BME280;41329;41.594;23.810;2023-07-31T10:18:18;94655.50;;;32.32;31.15
55466;BME280;41329;41.594;23.810;2023-07-31T10:20:44;94655.47;;;32.38;31.01
55466;BME280;41329;41.594;23.810;2023-07-31T10:23:10;94671.00;;;32.48;30.63
55466;BME280;41329;41.594;23.810;2023-07-31T10:25:37;94661.50;;;32.29;30.73
55466;BME280;41329;41.594;23.810;2023-07-31T10:28:02;94670.59;;;32.33;30.92
55466;BME280;41329;41.594;23.810;2023-07-31T10:30:29;94655.66;;;32.51;31.92
55466;BME280;41329;41.594;23.810;2023-07-31T10:32:56;94655.84;;;32.58;30.42
55466;BME280;41329;41.594;23.810;2023-07-31T10:35:22;94637.97;;;32.47;30.42
55466;BME280;41329;41.594;23.810;2023-07-31T10:37:48;94671.84;;;32.78;30.34
55466;BME280;41329;41.594;23.810;2023-07-31T10:40:32;94655.38;;;32.89;31.00
55466;BME280;41329;41.594;23.810;2023-07-31T10:42:57;94652.06;;;33.09;31.94
55466;BME280;41329;41.594;23.810;2023-07-31T10:45:36;94656.38;;;33.21;31.45
55466;BME280;41329;41.594;23.810;2023-07-31T10:50:32;94631.31;;;33.27;31.21
55466;BME280;41329;41.594;23.810;2023-07-31T10:52:58;94641.63;;;33.41;29.27
55466;BME280;41329;41.594;23.810;2023-07-31T10:55:32;94649.97;;;33.39;30.40
55466;BME280;41329;41.594;23.810;2023-07-31T10:58:09;94650.81;;;33.34;30.30
55466;BME280;41329;41.594;23.810;2023-07-31T11:00:37;94643.72;;;33.41;30.91
55466;BME280;41329;41.594;23.810;2023-07-31T11:03:08;94639.19;;;33.21;31.17
55466;BME280;41329;41.594;23.810;2023-07-31T11:10:43;94644.97;;;33.69;30.61
55466;BME280;41329;41.594;23.810;2023-07-31T11:13:09;94634.34;;;33.40;30.40
55466;BME280;41329;41.594;23.810;2023-07-31T11:15:35;94641.97;;;33.56;31.19
55466;BME280;41329;41.594;23.810;2023-07-31T11:18:01;94643.59;;;33.52;30.24
55466;BME280;41329;41.594;23.810;2023-07-31T11:20:38;94637.16;;;33.16;31.12
55466;BME280;41329;41.594;23.810;2023-07-31T11:23:07;94635.53;;;32.97;31.86
55466;BME280;41329;41.594;23.810;2023-07-31T11:25:33;94650.03;;;32.69;32.47
55466;BME280;41329;41.594;23.810;2023-07-31T11:28:05;94639.09;;;32.33;32.78
55466;BME280;41329;41.594;23.810;2023-07-31T11:30:30;94622.47;;;32.31;33.41
55466;BME280;41329;41.594;23.810;2023-07-31T11:32:56;94637.53;;;32.32;33.41
55466;BME280;41329;41.594;23.810;2023-07-31T11:35:21;94635.28;;;32.08;31.71
55466;BME280;41329;41.594;23.810;2023-07-31T11:37:47;94630.16;;;32.01;32.13
55466;BME280;41329;41.594;23.810;2023-07-31T11:40:14;94619.38;;;31.61;33.23
55466;BME280;41329;41.594;23.810;2023-07-31T11:42:40;94626.09;;;31.69;33.69
55466;BME280;41329;41.594;23.810;2023-07-31T11:45:07;94641.94;;;31.75;34.45
55466;BME280;41329;41.594;23.810;2023-07-31T11:47:33;94617.22;;;31.72;34.09
55466;BME280;41329;41.594;23.810;2023-07-31T11:50:03;94628.16;;;31.85;33.78
55466;BME280;41329;41.594;23.810;2023-07-31T11:52:37;94626.91;;;31.64;33.96
55466;BME280;41329;41.594;23.810;2023-07-31T11:55:05;94642.47;;;31.68;34.13
55466;BME280;41329;41.594;23.810;2023-07-31T11:57:34;94625.53;;;31.87;34.89
55466;BME280;41329;41.594;23.810;2023-07-31T12:00:01;94619.03;;;31.75;33.72
55466;BME280;41329;41.594;23.810;2023-07-31T12:02:26;94622.13;;;31.94;33.65
55466;BME280;41329;41.594;23.810;2023-07-31T12:04:52;94613.69;;;32.12;33.44
55466;BME280;41329;41.594;23.810;2023-07-31T12:07:17;94636.72;;;32.37;32.57
55466;BME280;41329;41.594;23.810;2023-07-31T12:09:55;94639.53;;;32.42;32.83
55466;BME280;41329;41.594;23.810;2023-07-31T12:12:26;94634.09;;;32.39;33.32
55466;BME280;41329;41.594;23.810;2023-07-31T12:14:51;94648.72;;;32.35;34.10
55466;BME280;41329;41.594;23.810;2023-07-31T12:17:19;94646.63;;;32.36;35.45
55466;BME280;41329;41.594;23.810;2023-07-31T12:19:45;94646.09;;;32.37;36.10
55466;BME280;41329;41.594;23.810;2023-07-31T12:22:12;94637.28;;;32.24;37.91
55466;BME280;41329;41.594;23.810;2023-07-31T12:24:39;94640.22;;;32.13;39.07
55466;BME280;41329;41.594;23.810;2023-07-31T12:27:10;94652.88;;;31.82;39.67
55466;BME280;41329;41.594;23.810;2023-07-31T12:29:36;94661.69;;;31.73;41.54
55466;BME280;41329;41.594;23.810;2023-07-31T12:32:01;94659.41;;;31.61;42.47
55466;BME280;41329;41.594;23.810;2023-07-31T12:34:27;94672.69;;;31.47;44.36
55466;BME280;41329;41.594;23.810;2023-07-31T12:36:53;94662.88;;;31.26;45.50
55466;BME280;41329;41.594;23.810;2023-07-31T12:39:19;94673.22;;;31.18;46.07
55466;BME280;41329;41.594;23.810;2023-07-31T12:41:44;94695.06;;;30.88;48.81
55466;BME280;41329;41.594;23.810;2023-07-31T12:44:09;94689.06;;;30.59;48.69
55466;BME280;41329;41.594;23.810;2023-07-31T12:46:35;94676.31;;;30.43;49.04
55466;BME280;41329;41.594;23.810;2023-07-31T12:49:00;94688.78;;;30.40;49.66
55466;BME280;41329;41.594;23.810;2023-07-31T12:51:26;94687.44;;;30.30;50.08
55466;BME280;41329;41.594;23.810;2023-07-31T12:53:51;94673.06;;;30.03;50.54
55466;BME280;41329;41.594;23.810;2023-07-31T12:56:16;94681.59;;;29.92;49.64
55466;BME280;41329;41.594;23.810;2023-07-31T12:58:43;94674.75;;;29.67;49.41
55466;BME280;41329;41.594;23.810;2023-07-31T13:01:08;94679.22;;;29.37;50.23